Time;durP1;ratioP1;P1;durP2;ratioP2;P2;SDS_P1;SDS_P2;PMS_P1;PMS_P2;Temp;Humidity;BMP_temperature;BMP_pressure;BME280_temperature;BME280_humidity;BME280_pressure;Samples;Min_cycle;Max_cycle;Signal;HPM_P1;HPM_P2
2022/01/11 00:00:28;;;;;;;9.95;6.95;;;11.60;60.40;;;;;;6157455;23;20013;-76
2022/01/11 00:02:56;;;;;;;9.63;7.25;;;11.60;60.50;;;;;;6157832;23;20415;-77
2022/01/11 00:05:27;;;;;;;10.98;6.85;;;11.60;60.40;;;;;;6158107;23;20335;-76
2022/01/11 00:07:54;;;;;;;9.15;6.20;;;11.50;60.30;;;;;;6156460;23;20076;-76
2022/01/11 00:10:30;;;;;;;8.10;6.05;;;11.60;60.40;;;;;;6156409;23;20159;-76
2022/01/11 00:12:57;;;;;;;8.27;6.80;;;11.60;60.30;;;;;;6158276;23;20398;-77
2022/01/11 00:15:23;;;;;;;8.40;6.45;;;11.60;60.30;;;;;;6157290;23;20293;-75
2022/01/11 00:17:49;;;;;;;9.13;6.57;;;11.60;60.30;;;;;;6156787;23;20013;-77
2022/01/11 00:20:17;;;;;;;7.68;5.85;;;11.60;60.30;;;;;;6157910;23;20032;-74
2022/01/11 00:25:28;;;;;;;6.60;5.40;;;11.60;60.30;;;;;;6157045;23;20025;-76
2022/01/11 00:27:54;;;;;;;8.20;6.60;;;11.60;60.30;;;;;;6157863;23;20018;-75
2022/01/11 00:30:20;;;;;;;9.82;6.85;;;11.50;60.30;;;;;;6132342;23;20406;-75
2022/01/11 00:32:51;;;;;;;7.22;5.78;;;11.50;60.30;;;;;;6156341;23;20084;-77
2022/01/11 00:35:21;;;;;;;7.85;5.57;;;11.60;60.40;;;;;;6157476;23;20013;-76
2022/01/11 00:37:48;;;;;;;8.40;6.07;;;11.50;60.30;;;;;;6156725;23;20018;-76
2022/01/11 00:40:14;;;;;;;7.18;5.50;;;11.50;60.30;;;;;;6157888;23;20382;-76
2022/01/11 00:42:40;;;;;;;7.85;5.55;;;11.60;60.40;;;;;;6157777;23;20092;-77
2022/01/11 00:45:09;;;;;;;7.32;5.63;;;11.50;60.30;;;;;;6157992;23;20064;-75
2022/01/11 00:47:36;;;;;;;7.57;5.57;;;11.50;60.30;;;;;;6156682;23;20024;-77
2022/01/11 00:50:03;;;;;;;8.10;5.97;;;11.50;60.30;;;;;;6156250;23;20052;-77
2022/01/11 00:52:29;;;;;;;6.28;5.10;;;11.50;60.30;;;;;;6158406;23;20025;-75
2022/01/11 00:54:55;;;;;;;8.80;6.43;;;11.60;60.40;;;;;;6157178;23;20049;-78
2022/01/11 00:57:22;;;;;;;6.63;5.57;;;11.50;60.20;;;;;;6158782;23;20332;-76
2022/01/11 00:59:47;;;;;;;7.53;5.45;;;11.50;60.20;;;;;;6158744;23;20079;-76
2022/01/11 01:02:14;;;;;;;5.60;4.90;;;11.60;60.30;;;;;;6157822;23;20407;-75
2022/01/11 01:04:40;;;;;;;7.20;5.57;;;11.50;60.20;;;;;;6156868;23;20431;-77
2022/01/11 01:07:06;;;;;;;6.72;5.22;;;11.50;60.20;;;;;;6156279;23;20018;-75
2022/01/11 01:09:43;;;;;;;7.22;5.47;;;11.50;60.20;;;;;;6156815;23;20025;-75
2022/01/11 01:12:09;;;;;;;7.50;5.07;;;11.50;60.20;;;;;;6156548;23;20080;-76
2022/01/11 01:14:34;;;;;;;6.75;5.32;;;11.50;60.20;;;;;;6157531;23;20292;-74
2022/01/11 01:17:00;;;;;;;6.18;5.18;;;11.50;60.20;;;;;;6157963;23;20017;-77
2022/01/11 01:19:27;;;;;;;7.82;4.93;;;11.50;60.20;;;;;;6157641;23;20317;-76
2022/01/11 01:21:54;;;;;;;6.05;5.10;;;11.50;60.20;;;;;;6158272;23;20021;-76
2022/01/11 01:24:22;;;;;;;7.20;5.13;;;11.50;60.20;;;;;;6157929;23;20017;-77
2022/01/11 01:26:48;;;;;;;7.00;5.07;;;11.50;60.20;;;;;;6158266;23;20030;-76
2022/01/11 01:29:15;;;;;;;6.38;5.20;;;11.50;60.20;;;;;;6159364;23;20021;-74
2022/01/11 01:31:41;;;;;;;7.43;5.20;;;11.50;60.20;;;;;;6159285;23;20311;-75
2022/01/11 01:34:07;;;;;;;6.78;5.38;;;11.50;60.20;;;;;;6159355;23;20017;-77
2022/01/11 01:36:33;;;;;;;5.68;4.82;;;11.50;60.20;;;;;;6158991;23;20089;-74
2022/01/11 01:38:59;;;;;;;6.53;5.28;;;11.50;60.20;;;;;;6158052;23;20320;-75
2022/01/11 01:41:25;;;;;;;6.82;5.00;;;11.50;60.20;;;;;;6158527;23;20026;-76
2022/01/11 01:43:55;;;;;;;5.97;4.93;;;11.50;60.20;;;;;;6159166;23;20158;-77
2022/01/11 01:46:22;;;;;;;6.68;5.40;;;11.50;60.20;;;;;;6159197;23;20022;-77
2022/01/11 01:48:49;;;;;;;6.40;4.85;;;11.50;60.20;;;;;;6159202;23;20029;-75
2022/01/11 01:51:15;;;;;;;6.50;4.95;;;11.50;60.10;;;;;;6158981;23;20358;-78
2022/01/11 01:53:45;;;;;;;7.95;5.32;;;11.50;60.20;;;;;;6158980;23;20018;-77
2022/01/11 01:56:10;;;;;;;6.28;4.90;;;11.50;60.80;;;;;;6157991;23;20017;-76
2022/01/11 01:58:37;;;;;;;6.43;5.30;;;11.50;60.20;;;;;;6158672;23;20021;-75
2022/01/11 02:01:04;;;;;;;5.68;4.70;;;11.50;60.20;;;;;;6159025;23;20021;-75
2022/01/11 02:03:37;;;;;;;7.57;5.15;;;11.50;60.10;;;;;;6158547;23;20052;-75
2022/01/11 02:06:05;;;;;;;6.55;4.28;;;11.50;60.10;;;;;;6158362;23;20022;-77
2022/01/11 02:08:31;;;;;;;7.45;5.03;;;11.50;60.00;;;;;;6158187;23;20308;-78
2022/01/11 02:10:57;;;;;;;6.63;4.88;;;11.50;60.10;;;;;;6158052;23;20028;-75
2022/01/11 02:13:23;;;;;;;7.65;4.60;;;11.50;60.10;;;;;;6159148;23;20029;-75
2022/01/11 02:15:50;;;;;;;5.80;4.63;;;11.50;60.10;;;;;;6159426;23;20049;-77
2022/01/11 02:18:20;;;;;;;5.38;4.28;;;11.50;60.10;;;;;;6158050;23;20033;-76
2022/01/11 02:20:49;;;;;;;7.30;5.05;;;11.50;60.10;;;;;;6158996;23;20028;-76
2022/01/11 02:23:16;;;;;;;6.72;4.95;;;11.50;60.10;;;;;;6157788;23;20080;-76
2022/01/11 02:25:42;;;;;;;7.80;4.80;;;11.50;60.10;;;;;;6157699;23;20036;-75
2022/01/11 02:28:11;;;;;;;7.10;4.80;;;11.50;60.00;;;;;;6157923;23;20022;-75
2022/01/11 02:30:37;;;;;;;6.57;4.50;;;11.50;60.00;;;;;;6157811;23;20089;-76
2022/01/11 02:33:06;;;;;;;6.80;4.57;;;11.50;60.00;;;;;;6157132;23;20075;-76
2022/01/11 02:35:32;;;;;;;5.43;4.50;;;11.40;60.00;;;;;;6158607;23;20021;-74
2022/01/11 02:37:58;;;;;;;5.80;4.75;;;11.50;60.10;;;;;;6157107;23;20084;-78
2022/01/11 02:40:23;;;;;;;8.40;5.15;;;11.50;60.10;;;;;;6158606;23;20028;-76
2022/01/11 02:42:49;;;;;;;6.68;4.38;;;11.50;60.10;;;;;;6157159;23;20313;-74
2022/01/11 02:45:17;;;;;;;5.18;4.43;;;11.40;60.00;;;;;;6158199;23;20067;-76
2022/01/11 02:47:45;;;;;;;7.30;4.70;;;11.40;60.00;;;;;;6158586;23;20025;-76
2022/01/11 02:50:12;;;;;;;6.97;4.95;;;11.50;60.00;;;;;;6157071;23;20017;-78
2022/01/11 02:52:38;;;;;;;6.80;4.57;;;11.50;60.00;;;;;;6158706;23;20077;-77
2022/01/11 02:55:09;;;;;;;6.78;4.40;;;11.40;60.00;;;;;;6158498;23;20423;-76
2022/01/11 02:57:35;;;;;;;8.52;4.68;;;11.40;60.00;;;;;;6158577;23;20427;-76
2022/01/11 03:00:06;;;;;;;5.85;4.47;;;11.40;60.00;;;;;;6158191;23;20144;-74
2022/01/11 03:02:32;;;;;;;7.30;4.53;;;11.40;60.00;;;;;;6157397;23;20049;-76
2022/01/11 03:04:57;;;;;;;5.68;4.30;;;11.40;60.00;;;;;;6158366;23;20084;-75
2022/01/11 03:07:23;;;;;;;6.68;4.90;;;11.40;60.00;;;;;;6159445;23;20025;-77
2022/01/11 03:10:15;;;;;;;6.65;4.95;;;11.40;60.00;;;;;;6158773;23;20025;-74
2022/01/11 03:12:37;;;;;;;7.05;5.25;;;11.40;60.00;;;;;;6157922;23;20450;-75
2022/01/11 03:15:04;;;;;;;5.85;4.68;;;11.40;60.00;;;;;;6157269;23;20017;-75
2022/01/11 03:17:29;;;;;;;5.90;4.35;;;11.40;60.00;;;;;;6156818;23;20013;-75
2022/01/11 03:19:55;;;;;;;6.75;4.40;;;11.40;60.10;;;;;;6158871;23;20160;-76
2022/01/11 03:22:21;;;;;;;6.75;4.88;;;11.40;60.00;;;;;;6158827;23;20143;-77
2022/01/11 03:24:47;;;;;;;7.20;4.55;;;11.40;60.10;;;;;;6157356;23;20060;-75
2022/01/11 03:27:13;;;;;;;6.35;4.13;;;11.30;60.00;;;;;;6158288;23;20060;-77
2022/01/11 03:29:39;;;;;;;7.47;4.50;;;11.40;60.10;;;;;;6159212;23;20021;-77
2022/01/11 03:32:07;;;;;;;7.47;5.20;;;11.40;60.00;;;;;;6158423;23;20017;-76
2022/01/11 03:34:32;;;;;;;5.75;4.65;;;11.40;60.00;;;;;;6158013;23;20017;-77
2022/01/11 03:36:59;;;;;;;7.20;4.95;;;11.40;59.90;;;;;;6156570;23;20111;-77
2022/01/11 03:39:25;;;;;;;9.38;5.28;;;11.40;59.90;;;;;;6157635;23;20021;-76
2022/01/11 03:41:51;;;;;;;7.82;4.78;;;11.40;59.90;;;;;;6157331;23;20116;-75
2022/01/11 03:44:17;;;;;;;8.00;5.70;;;11.40;59.90;;;;;;6158026;23;20061;-78
2022/01/11 03:46:43;;;;;;;8.45;5.00;;;11.40;59.80;;;;;;6158350;23;20041;-75
2022/01/11 03:49:09;;;;;;;8.25;5.10;;;11.40;59.80;;;;;;6156688;23;20028;-76
2022/01/11 03:51:38;;;;;;;6.18;4.53;;;11.40;59.80;;;;;;6157378;23;20021;-77
2022/01/11 03:54:11;;;;;;;8.38;5.03;;;11.40;59.80;;;;;;6158764;23;20017;-76
2022/01/11 03:56:37;;;;;;;7.78;4.85;;;11.40;59.80;;;;;;6158428;23;20017;-76
2022/01/11 03:59:06;;;;;;;7.30;5.18;;;11.40;59.80;;;;;;6158095;23;20020;-75
2022/01/11 04:01:36;;;;;;;7.72;4.93;;;11.40;59.90;;;;;;6158003;23;20069;-75
2022/01/11 04:04:02;;;;;;;7.05;5.30;;;11.40;59.90;;;;;;6156789;23;20379;-76
2022/01/11 04:06:28;;;;;;;6.03;4.60;;;11.30;59.90;;;;;;6158109;23;20097;-77
2022/01/11 04:08:53;;;;;;;7.68;5.13;;;11.40;59.90;;;;;;6157591;23;20072;-76
2022/01/11 04:11:19;;;;;;;8.52;5.95;;;11.30;59.80;;;;;;6158133;23;20324;-76
2022/01/11 04:13:45;;;;;;;7.28;5.00;;;11.30;59.80;;;;;;6157952;23;20021;-77
2022/01/11 04:16:12;;;;;;;7.80;5.13;;;11.30;59.80;;;;;;6156731;23;20087;-76
2022/01/11 04:18:38;;;;;;;6.57;4.80;;;11.30;59.70;;;;;;6156711;23;20473;-77
2022/01/11 04:21:04;;;;;;;7.47;5.50;;;11.30;59.80;;;;;;6133119;23;20045;-75
2022/01/11 04:23:31;;;;;;;10.65;5.07;;;11.30;59.80;;;;;;6158396;23;20022;-77
2022/01/11 04:25:57;;;;;;;7.88;5.80;;;11.30;59.80;;;;;;6157072;23;20062;-77
2022/01/11 04:28:23;;;;;;;9.60;4.88;;;11.30;59.80;;;;;;6157802;23;20400;-75
2022/01/11 04:31:01;;;;;;;8.57;5.25;;;11.30;59.80;;;;;;6157748;23;20013;-75
2022/01/11 04:33:28;;;;;;;9.07;5.38;;;11.30;59.80;;;;;;6158663;23;20039;-75
2022/01/11 04:35:54;;;;;;;7.85;5.47;;;11.30;59.80;;;;;;6156934;23;20379;-77
2022/01/11 04:38:23;;;;;;;8.90;6.00;;;11.30;59.80;;;;;;6158841;23;20355;-75
2022/01/11 04:40:50;;;;;;;8.73;5.15;;;11.30;59.80;;;;;;6157774;23;20026;-75
2022/01/11 04:43:15;;;;;;;7.45;5.57;;;11.30;59.80;;;;;;6157632;23;20025;-77
2022/01/11 04:45:41;;;;;;;8.82;5.47;;;11.30;59.80;;;;;;6158214;23;20418;-76
2022/01/11 04:48:07;;;;;;;7.30;5.25;;;11.30;59.80;;;;;;6157689;23;20070;-76
2022/01/11 04:50:33;;;;;;;6.40;4.78;;;11.30;59.80;;;;;;6158767;23;20141;-75
2022/01/11 04:52:59;;;;;;;7.40;5.50;;;11.30;59.80;;;;;;6156439;23;20018;-74
2022/01/11 04:55:25;;;;;;;7.97;5.35;;;11.30;59.80;;;;;;6132407;23;20092;-76
2022/01/11 04:57:51;;;;;;;7.55;5.03;;;11.30;59.80;;;;;;6158835;23;20052;-76
2022/01/11 05:00:20;;;;;;;7.70;5.45;;;11.30;59.70;;;;;;6158084;23;20021;-75
2022/01/11 05:02:46;;;;;;;8.05;5.15;;;11.30;59.70;;;;;;6159264;23;20420;-77
2022/01/11 05:05:13;;;;;;;9.40;5.95;;;11.30;59.80;;;;;;6158570;23;20024;-76
2022/01/11 05:07:38;;;;;;;8.38;6.00;;;11.30;59.80;;;;;;6158528;23;20288;-76
2022/01/11 05:10:05;;;;;;;7.45;5.50;;;11.30;59.80;;;;;;6158494;23;20088;-76
2022/01/11 05:12:32;;;;;;;8.35;5.53;;;11.30;59.70;;;;;;6159430;23;20060;-77
2022/01/11 05:14:57;;;;;;;8.63;5.85;;;11.30;59.70;;;;;;6158542;23;20403;-75
2022/01/11 05:17:23;;;;;;;9.25;5.63;;;11.30;59.70;;;;;;6158551;23;20076;-77
2022/01/11 05:19:49;;;;;;;8.13;5.97;;;11.30;59.70;;;;;;6158366;23;20021;-74
2022/01/11 05:22:15;;;;;;;9.68;5.35;;;11.30;59.70;;;;;;6160498;23;20018;-76
2022/01/11 05:24:41;;;;;;;9.18;5.88;;;11.30;59.70;;;;;;6158256;23;20048;-76
2022/01/11 05:27:07;;;;;;;7.32;5.05;;;11.30;59.70;;;;;;6160058;23;20053;-76
2022/01/11 05:29:33;;;;;;;8.90;5.93;;;11.30;59.80;;;;;;6158025;23;20023;-76
2022/01/11 05:31:59;;;;;;;10.63;5.90;;;11.30;59.80;;;;;;6159299;23;20160;-74
2022/01/11 05:34:26;;;;;;;9.23;6.53;;;11.30;59.70;;;;;;6157705;23;20073;-75
2022/01/11 05:36:53;;;;;;;8.02;6.05;;;11.30;59.80;;;;;;6158351;23;20022;-75
2022/01/11 05:39:18;;;;;;;8.40;5.85;;;11.30;59.80;;;;;;6159305;23;20134;-75
2022/01/11 05:41:44;;;;;;;9.07;6.05;;;11.30;59.70;;;;;;6158040;23;20025;-77
2022/01/11 05:44:10;;;;;;;8.27;5.60;;;11.30;59.70;;;;;;6158274;23;20028;-76
2022/01/11 05:46:36;;;;;;;8.70;5.90;;;11.30;59.70;;;;;;6159873;23;20022;-76
2022/01/11 05:49:02;;;;;;;8.13;5.80;;;11.30;59.70;;;;;;6159306;23;20052;-77
2022/01/11 05:51:28;;;;;;;9.57;5.95;;;11.20;59.60;;;;;;6159374;23;20028;-77
2022/01/11 05:53:55;;;;;;;9.32;6.18;;;11.20;59.60;;;;;;6158178;23;20040;-75
2022/01/11 05:56:21;;;;;;;9.13;5.75;;;11.20;59.60;;;;;;6157979;23;20029;-77
2022/01/11 05:58:48;;;;;;;8.75;6.03;;;11.20;59.60;;;;;;6158228;23;20017;-77
2022/01/11 06:01:14;;;;;;;8.90;6.22;;;11.20;59.60;;;;;;6159117;23;20057;-76
2022/01/11 06:03:40;;;;;;;10.07;6.32;;;11.20;59.60;;;;;;6132955;23;20014;-76
2022/01/11 06:06:06;;;;;;;8.43;5.53;;;11.20;59.70;;;;;;6157761;23;20101;-77
2022/01/11 06:08:32;;;;;;;9.68;6.13;;;11.20;59.60;;;;;;6158027;23;20060;-75
2022/01/11 06:10:58;;;;;;;8.25;4.97;;;11.30;59.70;;;;;;6158475;23;20026;-75
2022/01/11 06:13:24;;;;;;;9.18;6.03;;;11.20;59.60;;;;;;6157886;23;20018;-75
2022/01/11 06:15:51;;;;;;;7.88;5.63;;;11.20;59.60;;;;;;6158839;23;20073;-75
2022/01/11 06:18:17;;;;;;;9.00;5.88;;;11.20;59.50;;;;;;6158037;23;20021;-76
2022/01/11 06:20:43;;;;;;;8.40;6.00;;;11.20;59.60;;;;;;6158225;23;20322;-76
2022/01/11 06:23:09;;;;;;;8.27;6.07;;;11.20;59.50;;;;;;6158736;23;20332;-75
2022/01/11 06:25:35;;;;;;;8.60;5.50;;;11.20;59.50;;;;;;6158715;23;20109;-77
2022/01/11 06:28:01;;;;;;;10.05;6.53;;;11.20;59.50;;;;;;6158722;23;20026;-75
2022/01/11 06:30:27;;;;;;;11.10;6.53;;;11.20;59.50;;;;;;6158706;23;20025;-76
2022/01/11 06:32:54;;;;;;;9.80;6.25;;;11.20;59.50;;;;;;6158566;23;20028;-75
2022/01/11 06:35:20;;;;;;;8.63;5.90;;;11.20;59.50;;;;;;6158690;23;20024;-75
2022/01/11 06:37:46;;;;;;;9.93;6.35;;;11.20;59.50;;;;;;6158477;23;20066;-77
2022/01/11 06:40:16;;;;;;;7.55;5.53;;;11.20;59.50;;;;;;6157820;23;20088;-77
2022/01/11 06:42:42;;;;;;;8.73;6.13;;;11.20;59.50;;;;;;6158985;23;20024;-75
2022/01/11 06:45:08;;;;;;;9.18;6.35;;;11.20;59.50;;;;;;6159320;23;20272;-76
2022/01/11 06:47:34;;;;;;;8.18;6.03;;;11.20;59.50;;;;;;6157094;23;20017;-75
2022/01/11 06:50:00;;;;;;;7.32;5.50;;;11.20;59.40;;;;;;6159008;23;20104;-76
2022/01/11 06:52:26;;;;;;;9.93;6.07;;;11.20;59.50;;;;;;6157500;23;20043;-74
2022/01/11 06:54:51;;;;;;;9.57;6.65;;;11.20;59.40;;;;;;6156958;23;20026;-74
2022/01/11 06:57:17;;;;;;;9.52;6.32;;;11.20;59.40;;;;;;6156983;23;20021;-76
2022/01/11 06:59:43;;;;;;;9.23;6.45;;;11.20;59.40;;;;;;6157545;23;20061;-75
2022/01/11 07:02:08;;;;;;;9.55;6.55;;;11.20;59.40;;;;;;6133039;23;20096;-78
2022/01/11 07:04:37;;;;;;;8.75;5.93;;;11.20;59.40;;;;;;6157720;23;20067;-77
2022/01/11 07:07:04;;;;;;;10.70;6.57;;;11.20;59.40;;;;;;6158326;23;20366;-74
2022/01/11 07:09:30;;;;;;;8.75;6.13;;;11.20;59.40;;;;;;6158389;23;20061;-75
2022/01/11 07:11:55;;;;;;;8.95;6.20;;;11.20;59.40;;;;;;6158265;23;20030;-76
2022/01/11 07:14:21;;;;;;;8.93;6.25;;;11.20;59.40;;;;;;6158385;23;20037;-75
2022/01/11 07:16:48;;;;;;;7.95;5.97;;;11.10;59.40;;;;;;6157201;23;20466;-76
2022/01/11 07:19:15;;;;;;;9.40;6.55;;;11.10;59.30;;;;;;6156867;23;20021;-77
2022/01/11 07:21:41;;;;;;;8.73;5.97;;;11.10;59.30;;;;;;6157456;23;20021;-75
2022/01/11 07:24:06;;;;;;;10.02;6.05;;;11.10;59.30;;;;;;6157197;23;20076;-77
2022/01/11 07:26:34;;;;;;;9.13;6.22;;;11.10;59.30;;;;;;6156715;23;20032;-76
2022/01/11 07:28:59;;;;;;;8.93;7.00;;;11.10;59.90;;;;;;6158177;23;20055;-76
2022/01/11 07:31:25;;;;;;;8.88;6.32;;;11.20;59.30;;;;;;6158407;23;20018;-75
2022/01/11 07:33:51;;;;;;;9.38;6.38;;;11.10;59.30;;;;;;6158121;23;20057;-75
2022/01/11 07:36:16;;;;;;;9.98;6.95;;;11.10;59.30;;;;;;6157146;23;20052;-75
2022/01/11 07:38:42;;;;;;;9.35;6.45;;;11.10;59.30;;;;;;6158355;23;20061;-75
2022/01/11 07:41:08;;;;;;;9.85;6.25;;;11.10;59.30;;;;;;6158423;23;20018;-75
2022/01/11 07:43:33;;;;;;;9.02;6.15;;;11.10;59.30;;;;;;6156888;23;20415;-75
2022/01/11 07:45:59;;;;;;;10.10;6.95;;;11.10;59.30;;;;;;6157470;23;20411;-75
2022/01/11 07:48:25;;;;;;;12.00;7.10;;;11.10;59.30;;;;;;6156469;23;20053;-76
2022/01/11 07:50:50;;;;;;;10.48;6.35;;;11.10;59.20;;;;;;6156997;23;20084;-76
2022/01/11 07:53:16;;;;;;;8.43;6.40;;;11.10;59.30;;;;;;6157889;23;20014;-76
2022/01/11 07:55:42;;;;;;;11.00;7.35;;;11.10;59.30;;;;;;6157927;23;20033;-75
2022/01/11 07:58:08;;;;;;;11.00;7.50;;;11.10;59.30;;;;;;6158534;23;20124;-76
2022/01/11 08:00:33;;;;;;;10.93;7.57;;;11.10;59.30;;;;;;6158427;23;20025;-75
2022/01/11 08:02:59;;;;;;;11.20;7.45;;;11.10;59.30;;;;;;6157294;23;20021;-75
2022/01/11 08:05:25;;;;;;;10.25;7.10;;;11.10;59.30;;;;;;6157996;23;20017;-75
2022/01/11 08:07:50;;;;;;;9.13;6.65;;;11.10;59.30;;;;;;6157500;23;20436;-78
2022/01/11 08:10:18;;;;;;;9.93;7.22;;;11.10;59.30;;;;;;6158288;23;20101;-77
2022/01/11 08:12:45;;;;;;;12.75;7.20;;;11.10;59.30;;;;;;6157071;23;20024;-76
2022/01/11 08:15:11;;;;;;;9.27;7.18;;;11.10;59.30;;;;;;6157996;23;20029;-75
2022/01/11 08:17:36;;;;;;;9.05;6.70;;;11.10;59.30;;;;;;6157147;23;20085;-76
2022/01/11 08:20:03;;;;;;;12.00;7.50;;;11.10;59.30;;;;;;6157843;23;20072;-75
2022/01/11 08:22:29;;;;;;;8.98;6.85;;;11.10;59.30;;;;;;6157915;23;20017;-76
2022/01/11 08:24:55;;;;;;;12.15;7.22;;;11.10;59.30;;;;;;6157874;23;20025;-75
2022/01/11 08:27:22;;;;;;;10.57;7.07;;;11.10;59.30;;;;;;6158311;23;20148;-76
2022/01/11 08:29:51;;;;;;;11.25;7.55;;;11.10;59.30;;;;;;6158637;23;20026;-74
2022/01/11 08:32:17;;;;;;;10.75;7.00;;;11.10;59.30;;;;;;6158633;23;20024;-75
2022/01/11 08:34:43;;;;;;;9.30;7.03;;;11.10;59.30;;;;;;6158370;23;20021;-75
2022/01/11 08:37:09;;;;;;;9.43;6.85;;;11.10;59.30;;;;;;6158377;23;20018;-78
2022/01/11 08:39:35;;;;;;;11.13;7.63;;;11.10;59.30;;;;;;6158951;23;20445;-75
2022/01/11 08:42:01;;;;;;;9.43;7.22;;;11.10;59.30;;;;;;6159865;23;20025;-76
2022/01/11 08:44:27;;;;;;;11.77;7.20;;;11.10;59.50;;;;;;6159687;23;20024;-76
2022/01/11 08:46:54;;;;;;;9.45;6.75;;;11.10;59.30;;;;;;6159877;23;20040;-77
2022/01/11 08:49:21;;;;;;;10.82;7.57;;;11.10;59.30;;;;;;6158668;23;20014;-76
2022/01/11 08:51:47;;;;;;;10.73;7.40;;;11.10;59.30;;;;;;6157137;23;20295;-74
2022/01/11 08:54:18;;;;;;;10.13;7.30;;;11.10;59.30;;;;;;6157753;23;20064;-76
2022/01/11 08:56:44;;;;;;;9.57;7.30;;;11.10;59.30;;;;;;6157137;23;20451;-75
2022/01/11 08:59:10;;;;;;;10.25;7.85;;;11.10;59.30;;;;;;6156683;23;20100;-75
2022/01/11 09:01:36;;;;;;;10.50;7.40;;;11.10;59.30;;;;;;6157511;23;20033;-78
2022/01/11 09:04:03;;;;;;;10.73;7.63;;;11.10;59.30;;;;;;6156487;23;20021;-77
2022/01/11 09:06:28;;;;;;;9.40;6.85;;;11.10;59.30;;;;;;6157428;23;20028;-76
2022/01/11 09:08:54;;;;;;;9.98;7.10;;;11.10;59.30;;;;;;6157667;23;20482;-74
2022/01/11 09:11:20;;;;;;;11.73;8.05;;;11.10;59.30;;;;;;6157528;23;20021;-74
2022/01/11 09:13:47;;;;;;;9.25;7.20;;;11.10;59.30;;;;;;6156990;23;20044;-75
2022/01/11 09:16:13;;;;;;;10.25;7.22;;;11.10;59.30;;;;;;6156580;23;20430;-75
2022/01/11 09:18:39;;;;;;;8.43;6.47;;;11.10;59.30;;;;;;6156703;23;20018;-75
2022/01/11 09:21:05;;;;;;;9.80;7.78;;;11.10;59.30;;;;;;6156278;23;20014;-74
2022/01/11 09:23:32;;;;;;;11.63;7.63;;;11.10;59.30;;;;;;6157719;23;20281;-75
2022/01/11 09:25:58;;;;;;;10.35;7.55;;;11.10;59.30;;;;;;6156775;23;20017;-77
2022/01/11 09:28:24;;;;;;;8.95;7.30;;;11.00;59.20;;;;;;6157965;23;20025;-76
2022/01/11 09:30:51;;;;;;;11.70;8.50;;;11.10;59.30;;;;;;6156450;23;20052;-75
2022/01/11 09:33:17;;;;;;;11.02;7.50;;;11.10;59.30;;;;;;6157389;23;20404;-76
2022/01/11 09:35:44;;;;;;;11.23;7.88;;;11.00;59.20;;;;;;6156016;23;20028;-76
2022/01/11 09:38:10;;;;;;;11.65;7.75;;;11.10;59.30;;;;;;6156699;23;20027;-75
2022/01/11 09:40:35;;;;;;;10.05;7.82;;;11.10;59.30;;;;;;6156987;23;20057;-76
2022/01/11 09:43:01;;;;;;;9.55;7.72;;;11.00;59.30;;;;;;6157647;23;20105;-77
2022/01/11 09:45:27;;;;;;;11.30;8.57;;;11.10;59.30;;;;;;6157133;23;20053;-75
2022/01/11 09:47:52;;;;;;;10.38;7.53;;;11.00;59.30;;;;;;6131865;23;20037;-76
2022/01/11 09:50:19;;;;;;;10.20;8.13;;;11.00;59.30;;;;;;6111811;23;1122410;-74
2022/01/11 09:52:45;;;;;;;11.32;8.25;;;11.00;59.40;;;;;;6158747;23;20025;-77
2022/01/11 09:55:13;;;;;;;10.80;8.30;;;11.00;59.40;;;;;;6158666;23;20096;-75
2022/01/11 09:57:40;;;;;;;11.95;8.52;;;11.00;59.90;;;;;;6159066;23;20155;-77
2022/01/11 10:00:09;;;;;;;10.32;7.68;;;11.00;59.30;;;;;;6159141;23;20018;-77
2022/01/11 10:02:35;;;;;;;10.35;7.70;;;11.00;59.30;;;;;;6157890;23;20493;-76
2022/01/11 10:05:05;;;;;;;10.38;7.38;;;11.00;59.30;;;;;;6158915;23;20411;-75
2022/01/11 10:07:40;;;;;;;12.23;8.10;;;11.00;59.30;;;;;;6133565;23;20029;-76
2022/01/11 10:10:12;;;;;;;11.80;8.30;;;11.00;59.30;;;;;;6158661;23;20053;-74
2022/01/11 10:12:43;;;;;;;11.68;8.48;;;11.00;59.40;;;;;;6158052;23;20018;-77
2022/01/11 10:15:09;;;;;;;10.52;7.97;;;11.00;59.40;;;;;;6157782;23;20089;-77
2022/01/11 10:17:41;;;;;;;12.30;8.30;;;11.00;59.40;;;;;;6158732;23;20119;-77
2022/01/11 10:20:13;;;;;;;11.02;8.68;;;11.00;59.40;;;;;;6158934;23;20017;-78
2022/01/11 10:22:45;;;;;;;10.35;7.70;;;11.00;59.40;;;;;;6159060;23;20021;-75
2022/01/11 10:25:11;;;;;;;13.82;8.48;;;11.00;59.40;;;;;;6158974;23;20100;-74
2022/01/11 10:27:37;;;;;;;12.90;9.38;;;11.00;59.50;;;;;;6158639;23;20360;-74
2022/01/11 10:30:15;;;;;;;11.95;8.40;;;11.00;59.50;;;;;;6158578;23;20025;-75
2022/01/11 10:32:46;;;;;;;11.63;8.13;;;11.00;59.40;;;;;;6158174;23;20032;-77
2022/01/11 10:35:13;;;;;;;9.68;7.45;;;11.00;59.40;;;;;;6158773;23;20029;-74
2022/01/11 10:37:40;;;;;;;13.30;8.50;;;11.00;59.40;;;;;;6159460;23;20025;-76
2022/01/11 10:40:12;;;;;;;11.68;8.10;;;11.00;59.40;;;;;;6157946;23;20317;-76
2022/01/11 10:42:49;;;;;;;11.43;8.45;;;11.00;59.40;;;;;;6159381;23;20028;-78
2022/01/11 10:45:23;;;;;;;12.80;8.93;;;11.00;59.40;;;;;;6157077;23;20028;-76
2022/01/11 10:47:56;;;;;;;11.93;8.52;;;11.00;59.40;;;;;;6133413;23;20013;-75
2022/01/11 10:50:28;;;;;;;11.03;7.77;;;11.00;59.40;;;;;;6156999;23;20017;-76
2022/01/11 10:53:00;;;;;;;13.45;9.38;;;11.00;59.40;;;;;;6156947;23;20018;-75
2022/01/11 10:55:28;;;;;;;14.00;8.88;;;11.00;59.40;;;;;;6159314;23;20364;-75
2022/01/11 10:57:56;;;;;;;12.93;8.85;;;11.00;59.40;;;;;;6156717;23;20028;-76
2022/01/11 11:00:37;;;;;;;12.35;9.15;;;11.00;59.40;;;;;;6157918;23;20322;-77
2022/01/11 11:03:16;;;;;;;13.82;8.38;;;11.00;59.40;;;;;;6158491;23;20021;-76
2022/01/11 11:05:57;;;;;;;13.52;8.93;;;11.00;59.40;;;;;;6156956;23;20018;-76
2022/01/11 11:08:31;;;;;;;14.13;9.73;;;11.00;59.40;;;;;;6158726;23;20043;-76
2022/01/11 11:10:56;;;;;;;;;;;11.00;59.40;;;;;;6157746;23;20017;-77
2022/01/11 11:13:26;;;;;;;11.85;8.38;;;11.00;59.40;;;;;;6156790;23;19923;-76
2022/01/11 11:15:55;;;;;;;11.40;8.32;;;11.00;59.30;;;;;;6156763;23;20024;-75
2022/01/11 11:18:31;;;;;;;11.77;8.77;;;11.00;59.20;;;;;;6158390;23;20382;-76
2022/01/11 11:21:21;;;;;;;12.77;9.05;;;11.00;59.20;;;;;;6158275;23;20028;-75
2022/01/11 11:23:49;;;;;;;10.95;7.07;;;11.00;59.20;;;;;;6158504;23;20289;-75
2022/01/11 11:26:16;;;;;;;10.35;8.65;;;11.00;59.20;;;;;;6158556;23;20025;-76
2022/01/11 11:28:41;;;;;;;11.75;8.63;;;11.00;59.20;;;;;;6157917;23;20084;-75
2022/01/11 11:31:07;;;;;;;11.68;8.60;;;11.00;59.20;;;;;;6158491;23;20029;-76
2022/01/11 11:33:38;;;;;;;10.73;8.40;;;11.00;59.20;;;;;;6157925;23;20100;-76
2022/01/11 11:36:06;;;;;;;12.48;8.63;;;11.00;59.20;;;;;;6157191;23;20017;-75
2022/01/11 11:38:35;;;;;;;10.73;8.25;;;11.00;59.20;;;;;;6159274;23;20370;-75
2022/01/11 11:41:02;;;;;;;11.77;8.18;;;11.00;59.20;;;;;;6157331;23;20412;-77
2022/01/11 11:43:29;;;;;;;11.00;8.27;;;11.00;59.20;;;;;;6158248;23;20017;-75
2022/01/11 11:45:55;;;;;;;11.88;8.50;;;11.00;59.20;;;;;;6157123;23;20021;-76
2022/01/11 11:48:25;;;;;;;10.15;7.78;;;11.00;59.20;;;;;;6157206;23;20028;-75
2022/01/11 11:51:01;;;;;;;13.38;8.68;;;11.00;59.30;;;;;;6158166;23;20033;-74
2022/01/11 11:53:29;;;;;;;11.35;8.38;;;11.00;59.30;;;;;;6133232;23;20053;-77
2022/01/11 11:56:26;;;;;;;11.88;8.20;;;11.00;59.30;;;;;;6156907;23;20017;-76
2022/01/11 11:58:58;;;;;;;10.27;7.55;;;11.00;59.30;;;;;;6156959;23;20021;-75
2022/01/11 12:01:44;;;;;;;9.88;7.72;;;11.00;59.30;;;;;;6156912;23;20403;-75
2022/01/11 12:04:19;;;;;;;11.65;7.93;;;11.00;59.30;;;;;;6158221;23;20379;-75
2022/01/11 12:06:46;;;;;;;11.90;8.50;;;11.00;59.30;;;;;;6157463;23;20340;-76
2022/01/11 12:09:15;;;;;;;10.18;7.60;;;11.00;59.30;;;;;;6157665;23;20018;-77
2022/01/11 12:11:49;;;;;;;12.52;9.07;;;11.00;59.40;;;;;;6157907;23;20022;-76
2022/01/11 12:14:33;;;;;;;12.25;8.38;;;11.00;59.40;;;;;;6157127;23;20411;-76
2022/01/11 12:17:23;;;;;;;12.27;8.30;;;11.00;59.30;;;;;;6158740;23;20028;-75
2022/01/11 12:19:49;;;;;;;10.70;7.68;;;11.00;59.40;;;;;;6158296;23;20028;-75
2022/01/11 12:22:21;;;;;;;12.40;7.95;;;11.00;59.40;;;;;;6158009;23;20380;-77
2022/01/11 12:24:49;;;;;;;10.52;7.68;;;11.00;59.30;;;;;;6157888;23;20089;-76
2022/01/11 12:27:21;;;;;;;11.95;7.90;;;11.00;59.30;;;;;;6157920;23;20033;-76
2022/01/11 12:30:08;;;;;;;10.48;7.88;;;11.00;59.30;;;;;;6157698;23;20032;-75
2022/01/11 12:32:56;;;;;;;12.68;7.93;;;11.00;59.40;;;;;;6156884;23;20083;-75
2022/01/11 12:35:22;;;;;;;11.55;7.65;;;11.00;59.30;;;;;;6157647;23;20439;-74
2022/01/11 12:37:48;;;;;;;11.35;8.13;;;11.00;59.40;;;;;;6158579;23;20026;-75
2022/01/11 12:40:14;;;;;;;9.75;7.50;;;10.90;59.30;;;;;;6156817;23;20422;-75
2022/01/11 12:42:52;;;;;;;10.90;7.60;;;11.00;59.40;;;;;;6156778;23;20100;-76
2022/01/11 12:45:38;;;;;;;10.55;8.00;;;11.00;59.40;;;;;;6157809;23;20023;-75
2022/01/11 12:48:05;;;;;;;12.43;7.60;;;10.90;59.30;;;;;;6157170;23;20053;-79